createdAt,value
2022-09-12T00:01:10.387Z,13.35
2022-09-12T00:03:37.970Z,14.07
2022-09-12T00:06:12.527Z,13.55
2022-09-12T00:08:39.352Z,13.93
2022-09-12T00:11:10.797Z,13.45
2022-09-12T00:13:41.654Z,14.95
2022-09-12T00:16:15.676Z,14.27
2022-09-12T00:18:42.265Z,12.90
2022-09-12T00:21:08.769Z,12.73
2022-09-12T00:23:35.203Z,13.38
2022-09-12T00:26:04.677Z,12.20
2022-09-12T00:28:31.183Z,11.90
2022-09-12T00:30:57.674Z,11.60
2022-09-12T00:33:24.134Z,11.07
2022-09-12T00:35:52.931Z,11.98
2022-09-12T00:38:20.395Z,11.88
2022-09-12T00:40:47.305Z,13.35
2022-09-12T00:43:33.825Z,12.55
2022-09-12T00:46:04.190Z,13.15
2022-09-12T00:48:39.174Z,15.20
2022-09-12T00:51:06.021Z,14.32
2022-09-12T00:53:32.475Z,14.45
2022-09-12T00:55:59.067Z,14.40
2022-09-12T00:58:29.776Z,13.63
2022-09-12T01:00:57.458Z,15.85
2022-09-12T01:03:24.773Z,14.20
2022-09-12T01:06:16.849Z,14.63
2022-09-12T01:08:44.146Z,16.30
2022-09-12T01:11:12.817Z,15.63
2022-09-12T01:13:39.604Z,15.40
2022-09-12T01:16:07.167Z,15.95
2022-09-12T01:19:04.453Z,16.80
2022-09-12T01:21:39.983Z,16.92
2022-09-12T01:24:18.851Z,16.67
2022-09-12T01:27:00.654Z,18.80
2022-09-12T01:29:53.868Z,18.45
2022-09-12T01:32:48.536Z,17.55
2022-09-12T01:35:26.270Z,19.20
2022-09-12T01:38:09.615Z,18.10
2022-09-12T01:40:52.197Z,17.77
2022-09-12T01:43:36.037Z,17.23
2022-09-12T01:46:10.017Z,16.25
2022-09-12T01:48:40.782Z,16.40
2022-09-12T01:51:18.471Z,16.15
2022-09-12T01:53:47.058Z,17.33
2022-09-12T01:56:22.621Z,18.60
2022-09-12T01:59:02.713Z,22.23
2022-09-12T02:01:32.030Z,24.85
2022-09-12T02:04:08.899Z,24.92
2022-09-12T02:06:40.901Z,25.35
2022-09-12T02:09:11.299Z,25.10
2022-09-12T02:11:41.576Z,26.55
2022-09-12T02:14:21.769Z,26.58
2022-09-12T02:17:19.809Z,27.08
2022-09-12T02:19:51.313Z,25.10
2022-09-12T02:22:20.286Z,25.80
2022-09-12T02:24:50.786Z,25.33
2022-09-12T02:27:18.654Z,21.13
2022-09-12T02:29:45.678Z,24.52
2022-09-12T02:32:18.001Z,26.67
2022-09-12T02:34:50.561Z,25.73
2022-09-12T02:37:31.882Z,27.45
2022-09-12T02:39:58.502Z,29.70
2022-09-12T02:42:25.482Z,26.25
2022-09-12T02:44:52.911Z,24.27
2022-09-12T02:47:30.465Z,27.73
2022-09-12T02:49:56.960Z,25.45
2022-09-12T02:52:23.491Z,26.83
2022-09-12T02:54:50.416Z,23.75
2022-09-12T02:57:22.569Z,27.23
2022-09-12T02:59:50.594Z,24.33
2022-09-12T03:02:43.295Z,29.65
2022-09-12T03:05:20.559Z,29.88
2022-09-12T03:08:03.138Z,29.80
2022-09-12T03:10:41.698Z,27.90
2022-09-12T03:13:20.999Z,27.88
2022-09-12T03:16:04.172Z,25.95
2022-09-12T03:18:43.302Z,30.85
2022-09-12T03:21:17.919Z,29.50
2022-09-12T03:24:12.393Z,29.80
2022-09-12T03:26:50.779Z,28.40
2022-09-12T03:29:18.426Z,29.27
2022-09-12T03:31:53.480Z,29.83
2022-09-12T03:34:21.191Z,29.73
2022-09-12T03:36:47.734Z,30.10
2022-09-12T03:39:15.057Z,28.73
2022-09-12T03:41:41.634Z,26.70
2022-09-12T03:44:08.107Z,29.75
2022-09-12T03:46:34.826Z,33.03
2022-09-12T03:49:01.289Z,31.65
2022-09-12T03:51:28.762Z,29.67
2022-09-12T03:53:55.418Z,32.65
2022-09-12T03:56:21.978Z,32.10
2022-09-12T03:58:48.722Z,35.03
2022-09-12T04:01:17.521Z,34.28
2022-09-12T04:03:45.830Z,31.58
2022-09-12T04:06:15.387Z,34.78
2022-09-12T04:08:43.518Z,33.45
2022-09-12T04:11:12.538Z,35.72
2022-09-12T04:13:39.901Z,36.80
2022-09-12T04:16:07.356Z,36.10
2022-09-12T04:18:34.585Z,35.70
2022-09-12T04:21:06.314Z,37.15
2022-09-12T04:23:32.830Z,36.08
2022-09-12T04:26:01.618Z,36.67
2022-09-12T04:28:29.034Z,35.05
2022-09-12T04:30:56.150Z,34.90
2022-09-12T04:33:22.689Z,33.35
2022-09-12T04:35:49.133Z,30.58
2022-09-12T04:38:15.626Z,31.77
2022-09-12T04:40:42.163Z,31.10
2022-09-12T04:43:14.304Z,29.88
2022-09-12T04:45:41.146Z,30.10
2022-09-12T04:48:07.654Z,29.65
2022-09-12T04:50:34.117Z,30.27
2022-09-12T04:53:00.670Z,32.88
2022-09-12T04:55:27.277Z,29.60
2022-09-12T04:57:53.743Z,29.85
2022-09-12T05:00:20.539Z,29.98
2022-09-12T05:02:47.066Z,32.17
2022-09-12T05:05:13.571Z,28.98
2022-09-12T05:07:40.327Z,30.17
2022-09-12T05:10:07.403Z,28.17
2022-09-12T05:12:33.862Z,29.10
2022-09-12T05:15:00.320Z,27.38
2022-09-12T05:17:29.262Z,29.90
2022-09-12T05:19:55.742Z,31.40
2022-09-12T05:22:22.746Z,30.98
2022-09-12T05:24:50.762Z,34.35
2022-09-12T05:27:17.384Z,31.27
2022-09-12T05:29:43.825Z,34.03
2022-09-12T05:32:10.278Z,33.80
2022-09-12T05:34:38.121Z,32.45
2022-09-12T05:37:04.627Z,34.63
2022-09-12T05:39:31.062Z,33.25
2022-09-12T05:41:57.551Z,34.20
2022-09-12T05:44:24.821Z,38.15
2022-09-12T05:46:53.500Z,38.45
2022-09-12T05:49:21.341Z,37.95
2022-09-12T05:51:47.850Z,35.85
2022-09-12T05:54:18.702Z,37.25
2022-09-12T05:56:45.638Z,39.25
2022-09-12T05:59:20.350Z,39.72
2022-09-12T06:01:47.281Z,39.67
2022-09-12T06:04:13.903Z,38.03
2022-09-12T06:06:44.757Z,41.53
2022-09-12T06:09:12.193Z,38.38
2022-09-12T06:11:42.584Z,34.70
2022-09-12T06:14:10.763Z,36.60
2022-09-12T06:16:37.702Z,38.53
2022-09-12T06:19:11.949Z,37.17
2022-09-12T06:21:39.897Z,38.05
2022-09-12T06:24:07.420Z,38.15
2022-09-12T06:26:34.145Z,35.85
2022-09-12T06:29:01.064Z,40.15
2022-09-12T06:31:33.285Z,40.72
2022-09-12T06:34:01.948Z,40.72
2022-09-12T06:36:33.359Z,37.92
2022-09-12T06:39:01.842Z,39.38
2022-09-12T06:41:29.796Z,39.17
2022-09-12T06:43:56.231Z,37.53
2022-09-12T06:46:23.297Z,40.53
2022-09-12T06:48:50.437Z,36.90
2022-09-12T06:51:19.984Z,39.28
2022-09-12T06:53:47.630Z,38.83
2022-09-12T06:56:17.429Z,38.83
2022-09-12T06:58:44.084Z,39.10
2022-09-12T07:01:30.211Z,37.80
2022-09-12T07:03:59.215Z,37.78
2022-09-12T07:06:31.577Z,37.60
2022-09-12T07:08:59.353Z,35.22
2022-09-12T07:11:27.682Z,33.95
2022-09-12T07:13:56.356Z,35.95
2022-09-12T07:16:23.680Z,35.70
2022-09-12T07:18:51.585Z,35.97
2022-09-12T07:21:18.081Z,34.15
2022-09-12T07:23:45.414Z,36.60
2022-09-12T07:26:13.038Z,36.65
2022-09-12T07:28:40.019Z,35.15
2022-09-12T07:31:15.225Z,35.58
2022-09-12T07:33:42.699Z,35.47
2022-09-12T07:36:12.146Z,37.17
2022-09-12T07:38:39.116Z,35.97
2022-09-12T07:41:17.935Z,36.15
2022-09-12T07:43:44.940Z,34.47
2022-09-12T07:46:11.924Z,33.80
2022-09-12T07:48:39.104Z,32.72
2022-09-12T07:51:08.897Z,34.53
2022-09-12T07:53:37.448Z,32.83
2022-09-12T07:56:05.452Z,33.15
2022-09-12T07:58:33.201Z,31.80
2022-09-12T08:01:08.712Z,30.58
2022-09-12T08:03:39.216Z,29.83
2022-09-12T08:06:11.070Z,29.40
2022-09-12T08:08:38.608Z,32.97
2022-09-12T08:11:07.151Z,32.75
2022-09-12T08:13:35.531Z,29.63
2022-09-12T08:16:04.895Z,29.60
2022-09-12T08:18:32.601Z,30.77
2022-09-12T08:21:00.199Z,28.48
2022-09-12T08:23:28.638Z,26.90
2022-09-12T08:26:00.095Z,30.67
2022-09-12T08:31:00.621Z,31.42
2022-09-12T08:33:32.859Z,29.60
2022-09-12T08:36:04.890Z,32.22
2022-09-12T08:38:32.090Z,29.90
2022-09-12T08:41:27.996Z,28.20
2022-09-12T08:44:01.226Z,27.25
2022-09-12T08:47:05.414Z,27.92
2022-09-12T08:49:45.444Z,28.40
2022-09-12T08:52:15.633Z,28.55
2022-09-12T08:54:44.782Z,28.48
2022-09-12T08:57:11.773Z,29.23
2022-09-12T08:59:40.458Z,30.30
2022-09-12T09:02:28.607Z,30.27
2022-09-12T09:05:01.535Z,28.83
2022-09-12T09:07:52.862Z,27.98
2022-09-12T09:10:24.438Z,28.67
2022-09-12T09:13:10.404Z,28.90
2022-09-12T09:15:57.088Z,28.40
2022-09-12T09:18:31.725Z,31.73
2022-09-12T09:21:00.206Z,32.47
2022-09-12T09:23:32.661Z,34.00
2022-09-12T09:26:27.252Z,32.47
2022-09-12T09:29:04.679Z,32.55
2022-09-12T09:31:35.633Z,32.40
2022-09-12T09:34:09.748Z,32.58
2022-09-12T09:37:07.429Z,34.78
2022-09-12T09:40:03.317Z,33.78
2022-09-12T09:42:50.658Z,33.10
2022-09-12T09:45:20.181Z,30.63
2022-09-12T09:47:53.571Z,32.17
2022-09-12T09:50:20.078Z,32.30
2022-09-12T09:52:47.398Z,31.80
2022-09-12T09:55:18.317Z,28.92
2022-09-12T09:57:46.558Z,28.95
2022-09-12T10:00:27.399Z,29.88
2022-09-12T10:03:12.750Z,29.25
2022-09-12T10:05:48.577Z,30.27
2022-09-12T10:08:41.308Z,28.88
2022-09-12T10:11:16.908Z,24.48
2022-09-12T10:13:56.755Z,25.75
2022-09-12T10:16:28.307Z,27.02
2022-09-12T10:18:57.054Z,24.30
2022-09-12T10:21:29.491Z,26.83
2022-09-12T10:24:26.500Z,27.00
2022-09-12T10:26:57.022Z,23.15
2022-09-12T10:29:32.124Z,26.42
2022-09-12T10:32:02.059Z,25.40
2022-09-12T10:34:36.348Z,26.27
2022-09-12T10:37:05.819Z,24.58
2022-09-12T10:39:34.175Z,22.40
2022-09-12T10:42:01.517Z,22.73
2022-09-12T10:44:30.927Z,22.77
2022-09-12T10:46:58.571Z,22.10
2022-09-12T10:49:37.814Z,21.65
2022-09-12T10:52:20.535Z,21.77
2022-09-12T10:54:47.482Z,23.73
2022-09-12T10:57:46.276Z,23.05
2022-09-12T11:00:17.988Z,21.00
2022-09-12T11:02:58.195Z,23.30
2022-09-12T11:05:46.158Z,20.83
2022-09-12T11:08:40.082Z,20.15
2022-09-12T11:11:28.451Z,21.30
2022-09-12T11:14:17.183Z,21.48
2022-09-12T11:17:01.679Z,20.88
2022-09-12T11:19:56.122Z,19.17
2022-09-12T11:23:01.313Z,19.50
2022-09-12T11:25:37.589Z,19.02
2022-09-12T11:28:23.169Z,20.80
2022-09-12T11:31:05.313Z,19.10
2022-09-12T11:33:43.504Z,15.90
2022-09-12T11:36:32.840Z,16.48
2022-09-12T11:39:13.326Z,16.95
2022-09-12T11:41:51.034Z,19.55
2022-09-12T11:44:28.653Z,19.35
2022-09-12T11:46:55.305Z,18.70
2022-09-12T11:49:35.397Z,17.50
2022-09-12T11:52:25.987Z,16.83
2022-09-12T11:55:00.820Z,17.25
2022-09-12T11:57:54.970Z,17.92
2022-09-12T12:00:24.555Z,18.02
2022-09-12T12:03:05.163Z,18.20
2022-09-12T12:05:40.060Z,19.17
2022-09-12T12:08:06.978Z,17.48
2022-09-12T12:10:38.814Z,16.48
2022-09-12T12:13:14.076Z,17.88
2022-09-12T12:15:46.081Z,17.15
2022-09-12T12:18:19.239Z,15.07
2022-09-12T12:20:45.941Z,15.48
2022-09-12T12:23:31.861Z,14.27
2022-09-12T12:26:02.893Z,16.20
2022-09-12T12:28:38.498Z,15.38
2022-09-12T12:31:05.602Z,16.20
2022-09-12T12:33:32.113Z,15.95
2022-09-12T12:35:59.157Z,15.88
2022-09-12T12:38:38.995Z,15.23
2022-09-12T12:41:17.543Z,14.63
2022-09-12T12:43:45.791Z,14.13
2022-09-12T12:46:13.783Z,12.32
2022-09-12T12:49:02.571Z,14.32
2022-09-12T12:51:36.363Z,14.55
2022-09-12T12:54:08.706Z,12.95
2022-09-12T12:56:42.101Z,11.20
2022-09-12T12:59:21.422Z,7.72
2022-09-12T13:01:55.195Z,7.15
2022-09-12T13:04:24.012Z,7.38
2022-09-12T13:07:08.727Z,7.63
2022-09-12T13:09:48.179Z,6.50
2022-09-12T13:12:20.724Z,6.68
2022-09-12T13:14:48.322Z,7.07
2022-09-12T13:17:31.207Z,7.45
2022-09-12T13:20:27.286Z,6.63
2022-09-12T13:22:55.180Z,6.18
2022-09-12T13:25:27.650Z,5.90
2022-09-12T13:28:02.146Z,5.82
2022-09-12T13:30:31.451Z,6.15
2022-09-12T13:32:59.175Z,7.03
2022-09-12T13:35:38.468Z,6.80
2022-09-12T13:38:15.752Z,7.40
2022-09-12T13:41:01.660Z,7.82
2022-09-12T13:43:39.877Z,6.95
2022-09-12T13:46:07.282Z,6.80
2022-09-12T13:48:33.858Z,6.28
2022-09-12T13:51:01.920Z,6.10
2022-09-12T13:53:47.334Z,6.53
2022-09-12T13:56:20.438Z,6.78
2022-09-12T14:01:35.809Z,6.50
2022-09-12T14:04:33.010Z,6.40
2022-09-12T14:07:00.490Z,5.47
2022-09-12T14:09:31.073Z,5.50
2022-09-12T14:11:58.081Z,5.43
2022-09-12T14:14:32.998Z,5.15
2022-09-12T14:17:00.102Z,5.15
2022-09-12T14:19:27.266Z,4.75
2022-09-12T14:21:54.127Z,4.63
2022-09-12T14:24:24.153Z,4.68
2022-09-12T14:26:52.814Z,4.78
2022-09-12T14:29:19.884Z,4.72
2022-09-12T14:31:46.477Z,3.95
2022-09-12T14:34:19.554Z,3.33
2022-09-12T14:39:19.573Z,3.28
2022-09-12T14:41:46.502Z,3.65
2022-09-12T14:44:25.903Z,3.60
2022-09-12T14:46:52.431Z,4.30
2022-09-12T14:49:21.509Z,3.65
2022-09-12T14:51:53.697Z,3.28
2022-09-12T14:54:29.648Z,3.20
2022-09-12T14:57:00.807Z,3.75
2022-09-12T14:59:33.302Z,3.63
2022-09-12T15:02:20.657Z,3.15
2022-09-12T15:04:52.261Z,3.60
2022-09-12T15:07:25.925Z,3.17
2022-09-12T15:09:53.019Z,2.90
2022-09-12T15:12:19.450Z,3.10
2022-09-12T15:14:45.890Z,3.63
2022-09-12T15:17:12.451Z,3.17
2022-09-12T15:19:38.885Z,3.20
2022-09-12T15:22:05.410Z,3.33
2022-09-12T15:24:31.877Z,3.10
2022-09-12T15:26:58.386Z,3.40
2022-09-12T15:29:24.838Z,3.13
2022-09-12T15:31:51.655Z,3.50
2022-09-12T15:34:18.081Z,3.70
2022-09-12T15:36:44.570Z,3.30
2022-09-12T15:39:11.862Z,3.33
2022-09-12T15:41:38.777Z,3.20
2022-09-12T15:44:07.738Z,4.30
2022-09-12T15:46:34.284Z,3.80
2022-09-12T15:49:00.803Z,3.58
2022-09-12T15:51:27.655Z,4.30
2022-09-12T15:53:54.152Z,4.53
2022-09-12T15:56:21.793Z,4.00
2022-09-12T15:58:59.599Z,4.40
2022-09-12T16:01:27.903Z,5.05
2022-09-12T16:03:54.426Z,3.63
2022-09-12T16:06:22.109Z,4.30
2022-09-12T16:08:48.867Z,4.30
2022-09-12T16:11:21.483Z,4.03
2022-09-12T16:13:48.646Z,3.63
2022-09-12T16:16:15.159Z,3.83
2022-09-12T16:18:42.004Z,3.65
2022-09-12T16:21:12.769Z,4.15
2022-09-12T16:23:45.692Z,4.30
2022-09-12T16:26:12.160Z,4.43
2022-09-12T16:28:38.845Z,3.85
2022-09-12T16:31:06.970Z,3.92
2022-09-12T16:33:33.847Z,3.70
2022-09-12T16:36:06.102Z,3.80
2022-09-12T16:38:33.721Z,3.90
2022-09-12T16:41:04.556Z,3.75
2022-09-12T16:43:31.754Z,3.97
2022-09-12T16:46:05.616Z,3.58
2022-09-12T16:48:32.613Z,3.60
2022-09-12T16:51:01.897Z,3.80
2022-09-12T16:53:37.165Z,3.95
2022-09-12T16:56:05.144Z,3.83
2022-09-12T16:58:34.892Z,3.90
2022-09-12T17:01:05.553Z,4.10
2022-09-12T17:03:32.089Z,3.45
2022-09-12T17:06:07.746Z,3.45
2022-09-12T17:08:35.954Z,3.50
2022-09-12T17:11:10.478Z,3.55
2022-09-12T17:14:02.800Z,3.45
2022-09-12T17:16:25.601Z,4.13
2022-09-12T17:18:52.761Z,4.43
2022-09-12T17:21:19.555Z,3.88
2022-09-12T17:23:46.006Z,4.20
2022-09-12T17:26:13.030Z,4.88
2022-09-12T17:28:39.974Z,4.00
2022-09-12T17:31:09.046Z,4.22
2022-09-12T17:33:36.063Z,4.18
2022-09-12T17:36:08.155Z,4.30
2022-09-12T17:38:39.519Z,4.20
2022-09-12T17:41:10.353Z,4.32
2022-09-12T17:43:37.946Z,4.28
2022-09-12T17:46:04.954Z,4.50
2022-09-12T17:48:32.350Z,4.20
2022-09-12T17:50:59.246Z,4.60
2022-09-12T17:53:25.849Z,4.95
2022-09-12T17:55:54.320Z,5.07
2022-09-12T17:58:20.973Z,5.10
2022-09-12T18:01:13.630Z,4.82
2022-09-12T18:03:40.141Z,5.50
2022-09-12T18:06:07.114Z,5.82
2022-09-12T18:08:34.143Z,5.40
2022-09-12T18:11:05.483Z,5.70
2022-09-12T18:13:33.086Z,6.03
2022-09-12T18:16:07.090Z,6.32
2022-09-12T18:18:34.501Z,5.72
2022-09-12T18:21:01.468Z,6.10
2022-09-12T18:23:27.967Z,6.00
2022-09-12T18:26:02.207Z,6.50
2022-09-12T18:28:28.720Z,5.68
2022-09-12T18:30:55.214Z,6.03
2022-09-12T18:33:24.043Z,5.95
2022-09-12T18:35:50.883Z,6.00
2022-09-12T18:38:17.752Z,5.72
2022-09-12T18:40:44.248Z,5.72
2022-09-12T18:43:10.769Z,5.80
2022-09-12T18:45:37.239Z,6.10
2022-09-12T18:48:05.985Z,5.53
2022-09-12T18:50:32.881Z,5.70
2022-09-12T18:53:00.029Z,5.28
2022-09-12T18:55:26.578Z,5.25
2022-09-12T18:57:55.045Z,5.32
2022-09-12T19:00:21.652Z,5.38
2022-09-12T19:02:48.149Z,5.32
2022-09-12T19:05:14.621Z,6.28
2022-09-12T19:07:41.120Z,6.80
2022-09-12T19:10:08.806Z,5.97
2022-09-12T19:12:35.296Z,6.45
2022-09-12T19:15:01.749Z,6.93
2022-09-12T19:17:28.230Z,7.50
2022-09-12T19:19:55.368Z,7.00
2022-09-12T19:22:22.144Z,7.00
2022-09-12T19:24:48.586Z,6.80
2022-09-12T19:27:16.014Z,7.45
2022-09-12T19:29:42.567Z,6.75
2022-09-12T19:32:09.026Z,7.03
2022-09-12T19:34:35.526Z,6.75
2022-09-12T19:37:02.026Z,6.80
2022-09-12T19:39:28.569Z,6.57
2022-09-12T19:41:54.995Z,7.30
2022-09-12T19:44:21.565Z,6.53
2022-09-12T19:46:48.122Z,7.90
2022-09-12T19:49:14.671Z,8.13
2022-09-12T19:51:41.506Z,7.10
2022-09-12T19:54:08.069Z,8.60
2022-09-12T19:56:34.594Z,7.82
2022-09-12T19:59:01.079Z,7.70
2022-09-12T20:01:28.267Z,8.05
2022-09-12T20:03:55.689Z,7.22
2022-09-12T20:06:22.507Z,7.95
2022-09-12T20:08:49.207Z,6.97
2022-09-12T20:11:18.349Z,6.63
2022-09-12T20:13:45.228Z,7.10
2022-09-12T20:16:19.034Z,7.38
2022-09-12T20:18:49.279Z,7.28
2022-09-12T20:21:18.185Z,7.60
2022-09-12T20:23:45.761Z,6.93
2022-09-12T20:26:12.357Z,7.60
2022-09-12T20:28:40.122Z,7.68
2022-09-12T20:31:14.541Z,7.78
2022-09-12T20:33:41.333Z,7.45
2022-09-12T20:36:17.109Z,7.93
2022-09-12T20:38:51.083Z,7.18
2022-09-12T20:41:18.373Z,8.15
2022-09-12T20:43:44.804Z,8.52
2022-09-12T20:46:11.564Z,7.68
2022-09-12T20:48:38.830Z,6.97
2022-09-12T20:51:05.853Z,7.80
2022-09-12T20:53:35.047Z,7.30
2022-09-12T20:56:03.028Z,8.18
2022-09-12T20:58:29.524Z,8.15
2022-09-12T21:00:56.034Z,8.63
2022-09-12T21:03:22.732Z,9.13
2022-09-12T21:05:49.182Z,8.45
2022-09-12T21:08:15.766Z,9.10
2022-09-12T21:10:43.224Z,8.85
2022-09-12T21:13:10.545Z,10.70
2022-09-12T21:15:38.465Z,11.70
2022-09-12T21:18:05.202Z,11.68
2022-09-12T21:20:32.104Z,9.50
2022-09-12T21:22:58.857Z,8.65
2022-09-12T21:25:25.290Z,8.88
2022-09-12T21:27:51.813Z,9.10
2022-09-12T21:30:18.262Z,9.00
2022-09-12T21:32:44.799Z,9.40
2022-09-12T21:35:11.370Z,9.45
2022-09-12T21:37:37.862Z,9.85
2022-09-12T21:40:04.676Z,10.40
2022-09-12T21:42:31.753Z,9.95
2022-09-12T21:44:58.179Z,10.10
2022-09-12T21:47:24.695Z,11.20
2022-09-12T21:49:51.210Z,11.30
2022-09-12T21:52:17.690Z,10.95
2022-09-12T21:54:44.121Z,10.73
2022-09-12T21:57:10.630Z,10.50
2022-09-12T21:59:37.082Z,10.45
2022-09-12T22:02:03.791Z,11.23
2022-09-12T22:04:32.823Z,11.23
2022-09-12T22:06:59.552Z,11.90
2022-09-12T22:09:25.993Z,11.07
2022-09-12T22:11:52.488Z,11.55
2022-09-12T22:14:18.972Z,11.93
2022-09-12T22:16:45.449Z,11.73
2022-09-12T22:19:12.850Z,12.38
2022-09-12T22:21:59.274Z,11.48
2022-09-12T22:24:28.577Z,12.73
2022-09-12T22:26:55.549Z,12.05
2022-09-12T22:29:22.104Z,10.95
2022-09-12T22:31:48.644Z,10.85
2022-09-12T22:34:16.234Z,10.60
2022-09-12T22:36:42.708Z,11.07
2022-09-12T22:39:09.227Z,10.15
2022-09-12T22:41:35.738Z,10.50
2022-09-12T22:44:02.300Z,10.50
2022-09-12T22:46:29.950Z,11.13
2022-09-12T22:48:56.510Z,10.75
2022-09-12T22:51:23.339Z,10.90
2022-09-12T22:53:49.798Z,10.70
2022-09-12T22:56:16.231Z,10.85
2022-09-12T22:58:43.466Z,10.80
2022-09-12T23:01:10.560Z,11.18
2022-09-12T23:03:37.242Z,10.88
2022-09-12T23:06:04.482Z,11.55
2022-09-12T23:08:30.908Z,10.70
2022-09-12T23:11:05.404Z,10.77
2022-09-12T23:13:32.745Z,10.98
2022-09-12T23:16:00.396Z,11.55
2022-09-12T23:18:27.031Z,11.75
2022-09-12T23:21:04.770Z,11.52
2022-09-12T23:23:31.749Z,12.35
2022-09-12T23:26:19.213Z,13.90
2022-09-12T23:28:50.824Z,13.85
2022-09-12T23:31:17.349Z,13.88
2022-09-12T23:33:44.215Z,14.75
2022-09-12T23:36:14.866Z,14.68
2022-09-12T23:38:42.845Z,15.43
2022-09-12T23:41:10.528Z,15.98
2022-09-12T23:43:37.025Z,16.60
2022-09-12T23:46:04.586Z,16.70
2022-09-12T23:48:32.103Z,17.88
2022-09-12T23:50:59.165Z,18.10
2022-09-12T23:53:25.919Z,17.63
2022-09-12T23:55:52.590Z,18.92
2022-09-12T23:58:19.237Z,17.80
